aviador You're here:

KRIW Decoded Metar

RIVERTON in WY, USA
Report Time2017-06-25 05:53:00
UTC Time2017-06-25 06:56:30
Flight Rules vfr VFR
Wind090° at 10 kt
W.Decomp.*RWY 10: 9.3 kt HW 3.6 kt LCW
RWY 01: 3.6 kt HW 9.3 kt RCW
W.Rank090° ranks 22
Current wind is above 090° avg. (6.1)
Visibility9999 m
Phenomena:N/A
Clouds:Few 110 Hf
Expected CloudBase > 5,200 ft AGL from Temp-Dew spread
CeilingNone
Temp15°C (ISA +11)
Dew Point02°C (42% RH)
AAT9.8°C
QNH1028 hPa
Density Alt6,460 ft
Elevation5,568 ft
Report Wrong Elevation
Raw Report
METAR KRIW 250553Z AUTO 09010KT 10SM FEW110 15/02 A3037 RMK AO2 SLP236
T01500022 10228 20150 51022 TSNO=

Extra information for KRIW:More info

Metar Taf Metar & Taf Last 4 Metars F.Rules Stats Wind Profile Meteogram Temp Stats Airport Information Weather charts Add Link Nearby VenuesMetar ALERT Operation Metar Decoded Social comments

AIRNAV info for KRIW